Time;durP1;ratioP1;P1;durP2;ratioP2;P2;SDS_P1;SDS_P2;PMS_P1;PMS_P2;Temp;Humidity;BMP_temperature;BMP_pressure;BME280_temperature;BME280_humidity;BME280_pressure;Samples;Min_cycle;Max_cycle;Signal;HPM_P1;HPM_P2
2023/07/13 00:00:33;;;;;;;0.90;0.60;;;17.50;99.90;;;;;;5036471;28;20894;-69
2023/07/13 00:02:59;;;;;;;2.30;0.70;;;17.50;99.90;;;;;;5036382;28;20406;-69
2023/07/13 00:05:26;;;;;;;0.63;0.63;;;17.60;99.90;;;;;;5036529;28;20675;-69
2023/07/13 00:07:51;;;;;;;1.80;1.37;;;17.70;99.90;;;;;;5036192;28;20183;-69
2023/07/13 00:10:17;;;;;;;2.00;1.47;;;17.70;99.90;;;;;;5036332;28;20424;-69
2023/07/13 00:12:43;;;;;;;0.40;0.40;;;17.70;99.90;;;;;;5036088;28;20575;-68
2023/07/13 00:15:22;;;;;;;0.67;0.50;;;17.60;99.90;;;;;;5036112;28;20442;-69
2023/07/13 00:17:52;;;;;;;2.87;1.53;;;17.60;99.90;;;;;;5036091;28;20473;-69
2023/07/13 00:20:21;;;;;;;0.60;0.60;;;17.60;99.90;;;;;;5036243;28;20407;-69
2023/07/13 00:22:47;;;;;;;0.70;0.70;;;17.60;99.90;;;;;;5035883;28;20438;-69
2023/07/13 00:25:13;;;;;;;3.20;1.00;;;17.50;99.90;;;;;;5035998;28;20398;-69
2023/07/13 00:27:39;;;;;;;1.00;0.60;;;17.50;99.90;;;;;;5035864;28;20976;-69
2023/07/13 00:30:05;;;;;;;2.80;2.60;;;17.50;99.90;;;;;;5036198;28;20174;-69
2023/07/13 00:32:31;;;;;;;0.90;0.90;;;17.40;99.90;;;;;;5035462;28;20639;-69
2023/07/13 00:35:00;;;;;;;0.70;0.70;;;17.40;99.90;;;;;;5035731;28;20464;-69
2023/07/13 00:37:25;;;;;;;0.60;0.60;;;17.40;99.90;;;;;;5035835;28;20469;-69
2023/07/13 00:39:51;;;;;;;1.30;0.93;;;17.40;99.90;;;;;;5035731;28;20770;-69
2023/07/13 00:42:17;;;;;;;0.40;0.40;;;17.40;99.90;;;;;;5035607;28;20168;-69
2023/07/13 00:45:12;;;;;;;0.63;0.63;;;17.40;99.90;;;;;;5035772;28;20261;-69
2023/07/13 00:47:39;;;;;;;0.60;0.60;;;17.40;99.90;;;;;;5035550;28;20281;-69
2023/07/13 00:50:15;;;;;;;0.50;0.50;;;17.50;99.90;;;;;;5035550;28;20411;-70
2023/07/13 00:52:47;;;;;;;0.40;0.40;;;17.50;99.90;;;;;;5035560;28;20765;-68
2023/07/13 00:55:14;;;;;;;1.13;1.00;;;17.40;99.90;;;;;;5035625;28;20402;-69
2023/07/13 00:57:41;;;;;;;0.70;0.47;;;17.40;99.90;;;;;;5035388;28;20460;-69
2023/07/13 01:00:08;;;;;;;0.50;0.50;;;17.40;99.90;;;;;;5035476;28;20409;-69
2023/07/13 01:02:39;;;;;;;2.03;0.70;;;17.50;99.90;;;;;;5035254;28;20483;-70
2023/07/13 01:05:16;;;;;;;0.67;0.67;;;17.50;99.90;;;;;;5035531;28;20408;-68
2023/07/13 01:07:44;;;;;;;0.60;0.60;;;17.50;99.90;;;;;;5035268;28;20427;-69
2023/07/13 01:10:13;;;;;;;0.57;0.57;;;17.40;99.90;;;;;;5035315;28;20519;-69
2023/07/13 01:12:40;;;;;;;1.50;1.07;;;17.40;99.90;;;;;;5034853;28;20409;-69
2023/07/13 01:15:26;;;;;;;0.67;0.67;;;17.40;99.90;;;;;;5035103;28;20407;-69
2023/07/13 01:17:52;;;;;;;1.17;1.13;;;17.40;99.90;;;;;;5034765;28;20457;-69
2023/07/13 01:20:17;;;;;;;2.03;0.77;;;17.40;99.90;;;;;;5035091;28;20409;-69
2023/07/13 01:22:43;;;;;;;0.40;0.40;;;17.40;99.90;;;;;;5035003;28;20179;-69
2023/07/13 01:25:09;;;;;;;0.90;0.90;;;17.40;99.90;;;;;;5034813;28;20681;-70
2023/07/13 01:27:35;;;;;;;3.00;1.10;;;17.30;99.90;;;;;;5016978;28;20447;-69
2023/07/13 01:30:01;;;;;;;0.40;0.40;;;17.40;99.90;;;;;;5034866;28;20162;-68
2023/07/13 01:32:27;;;;;;;3.07;1.37;;;17.30;99.90;;;;;;5034674;28;20414;-69
2023/07/13 01:34:54;;;;;;;0.73;0.73;;;17.20;99.90;;;;;;5034696;28;20485;-69
2023/07/13 01:37:20;;;;;;;0.40;0.40;;;17.20;99.90;;;;;;5034524;28;20229;-69
2023/07/13 01:39:46;;;;;;;0.53;0.53;;;17.10;99.90;;;;;;5034535;28;20406;-69
2023/07/13 01:42:13;;;;;;;0.87;0.87;;;17.10;99.90;;;;;;5034429;28;20804;-69
2023/07/13 01:44:38;;;;;;;0.60;0.60;;;17.00;99.90;;;;;;5033610;28;20727;-69
2023/07/13 01:47:04;;;;;;;0.70;0.70;;;17.00;99.90;;;;;;5034531;28;20444;-69
2023/07/13 01:49:30;;;;;;;1.00;1.00;;;17.00;99.90;;;;;;5034534;28;20174;-69
2023/07/13 01:51:56;;;;;;;0.70;0.70;;;17.00;99.90;;;;;;5034206;28;20425;-69
2023/07/13 01:54:21;;;;;;;1.10;0.90;;;17.00;99.90;;;;;;5034503;28;20174;-69
2023/07/13 01:56:47;;;;;;;0.53;0.53;;;17.10;99.90;;;;;;5034561;28;20234;-69
2023/07/13 01:59:13;;;;;;;0.60;0.60;;;17.20;99.90;;;;;;5034315;28;20171;-69
2023/07/13 02:01:38;;;;;;;2.67;0.80;;;17.20;99.90;;;;;;5034006;28;20254;-69
2023/07/13 02:04:04;;;;;;;1.23;1.13;;;17.20;99.90;;;;;;5034262;28;20173;-69
2023/07/13 02:06:30;;;;;;;0.53;0.53;;;17.20;99.90;;;;;;5034100;28;20194;-69
2023/07/13 02:08:55;;;;;;;0.60;0.60;;;17.20;99.90;;;;;;5034015;28;20981;-69
2023/07/13 02:11:21;;;;;;;0.80;0.80;;;17.20;99.90;;;;;;5034020;28;20193;-69
2023/07/13 02:13:47;;;;;;;76.10;3.60;;;17.10;99.90;;;;;;5034307;28;20257;-69
2023/07/13 02:16:12;;;;;;;0.50;0.50;;;17.10;99.90;;;;;;5033898;28;20199;-69
2023/07/13 02:18:38;;;;;;;1.30;1.30;;;17.10;99.90;;;;;;5034175;28;20182;-69
2023/07/13 02:21:04;;;;;;;0.50;0.50;;;17.10;99.90;;;;;;5033807;28;20172;-69
2023/07/13 02:23:30;;;;;;;0.77;0.77;;;17.10;99.90;;;;;;5033961;28;20178;-69
2023/07/13 02:25:57;;;;;;;1.33;1.10;;;17.30;99.90;;;;;;5033721;28;20174;-69
2023/07/13 02:28:23;;;;;;;0.40;0.40;;;17.00;99.90;;;;;;5033751;28;20171;-68
2023/07/13 02:30:48;;;;;;;0.70;0.70;;;17.10;99.90;;;;;;5033633;28;20405;-69
2023/07/13 02:33:14;;;;;;;0.80;0.80;;;17.10;99.90;;;;;;5033681;28;20179;-68
2023/07/13 02:35:40;;;;;;;1.43;1.33;;;17.00;99.90;;;;;;5033634;28;20211;-69
2023/07/13 02:38:06;;;;;;;2.57;2.37;;;17.10;99.90;;;;;;5033553;28;20428;-69
2023/07/13 02:40:35;;;;;;;0.40;0.40;;;17.00;99.90;;;;;;5033553;28;20394;-69
2023/07/13 02:43:01;;;;;;;0.60;0.60;;;17.00;99.90;;;;;;5033356;28;20406;-69
2023/07/13 02:45:27;;;;;;;1.33;1.23;;;17.00;99.90;;;;;;5033607;28;20409;-69
2023/07/13 02:47:53;;;;;;;0.43;0.43;;;17.10;99.90;;;;;;5033433;28;20433;-69
2023/07/13 02:50:19;;;;;;;0.33;0.33;;;17.10;99.90;;;;;;5033611;28;20413;-69
2023/07/13 02:52:45;;;;;;;0.80;0.60;;;17.10;99.90;;;;;;5033262;28;20417;-69
2023/07/13 02:55:10;;;;;;;1.37;1.27;;;17.00;99.90;;;;;;5033387;28;20182;-69
2023/07/13 02:57:36;;;;;;;1.10;1.00;;;17.00;99.90;;;;;;5032884;28;20215;-69
2023/07/13 03:00:07;;;;;;;1.07;0.90;;;16.90;99.90;;;;;;5033561;28;20242;-68
2023/07/13 03:02:33;;;;;;;0.80;0.80;;;17.00;99.90;;;;;;5033418;28;20163;-69
2023/07/13 03:04:59;;;;;;;0.57;0.57;;;17.00;99.90;;;;;;5033316;28;20544;-69
2023/07/13 03:07:28;;;;;;;0.70;0.70;;;17.00;99.90;;;;;;5033258;28;20459;-69
2023/07/13 03:09:57;;;;;;;1.13;1.10;;;16.90;99.90;;;;;;5033266;28;20206;-69
2023/07/13 03:12:24;;;;;;;0.47;0.47;;;16.90;99.90;;;;;;5033290;28;20417;-69
2023/07/13 03:14:49;;;;;;;0.60;0.60;;;16.80;99.90;;;;;;5033363;28;20766;-69
2023/07/13 03:17:15;;;;;;;1.60;0.87;;;16.80;99.90;;;;;;5033037;28;20553;-70
2023/07/13 03:19:40;;;;;;;0.60;0.60;;;16.80;99.90;;;;;;5032996;28;20190;-69
2023/07/13 03:22:06;;;;;;;1.37;1.37;;;16.80;99.90;;;;;;5033164;28;20628;-69
2023/07/13 03:24:37;;;;;;;0.50;0.50;;;16.80;99.90;;;;;;5033171;28;20229;-69
2023/07/13 03:27:04;;;;;;;0.97;0.97;;;16.80;99.90;;;;;;5033090;28;20919;-69
2023/07/13 03:29:30;;;;;;;0.53;0.53;;;16.80;99.90;;;;;;5033154;28;20405;-68
2023/07/13 03:31:55;;;;;;;1.57;1.47;;;16.80;99.90;;;;;;5032969;28;20776;-69
2023/07/13 03:34:21;;;;;;;11.37;1.27;;;16.80;99.90;;;;;;5033160;28;20171;-69
2023/07/13 03:36:47;;;;;;;1.70;1.03;;;16.80;99.90;;;;;;5033170;28;20207;-69
2023/07/13 03:39:12;;;;;;;1.57;0.87;;;16.80;99.90;;;;;;5033210;28;20171;-70
2023/07/13 03:41:38;;;;;;;0.70;0.70;;;16.80;99.90;;;;;;5032743;28;20163;-69
2023/07/13 03:44:04;;;;;;;0.70;0.70;;;16.80;99.90;;;;;;5032440;28;20179;-70
2023/07/13 03:46:29;;;;;;;0.80;0.80;;;16.80;99.90;;;;;;5032833;28;20186;-69
2023/07/13 03:48:55;;;;;;;0.60;0.50;;;16.70;99.90;;;;;;5032824;28;20175;-69
2023/07/13 03:51:21;;;;;;;0.70;0.70;;;16.80;99.90;;;;;;5032636;28;20165;-69
2023/07/13 03:53:48;;;;;;;0.77;0.77;;;16.80;99.90;;;;;;5032975;28;20182;-69
2023/07/13 03:56:15;;;;;;;0.60;0.60;;;16.70;99.90;;;;;;5032664;28;20876;-69
2023/07/13 03:58:42;;;;;;;0.60;0.60;;;16.70;99.90;;;;;;5032775;28;20429;-69
2023/07/13 04:01:10;;;;;;;1.23;0.70;;;16.70;99.90;;;;;;5032644;28;20448;-69
2023/07/13 04:03:36;;;;;;;0.50;0.50;;;16.70;99.90;;;;;;5032910;28;20759;-69
2023/07/13 04:06:04;;;;;;;0.70;0.70;;;16.70;99.90;;;;;;5032833;28;20418;-69
2023/07/13 04:08:31;;;;;;;0.50;0.50;;;16.70;99.90;;;;;;5033807;28;20410;-69
2023/07/13 04:10:58;;;;;;;1.27;0.73;;;16.80;99.90;;;;;;5036164;28;20459;-69
2023/07/13 04:13:24;;;;;;;0.60;0.47;;;16.80;99.90;;;;;;5036156;28;20401;-69
2023/07/13 04:15:51;;;;;;;0.63;0.63;;;16.70;99.90;;;;;;5035936;28;20814;-69
2023/07/13 04:18:16;;;;;;;0.70;0.70;;;16.80;99.90;;;;;;5036231;28;20421;-69
2023/07/13 04:20:42;;;;;;;0.83;0.80;;;16.90;99.90;;;;;;5036086;28;20539;-68
2023/07/13 04:23:08;;;;;;;1.20;1.20;;;16.90;99.90;;;;;;5036205;28;20405;-69
2023/07/13 04:25:33;;;;;;;0.40;0.40;;;17.00;99.90;;;;;;5036065;28;20212;-69
2023/07/13 04:27:59;;;;;;;0.90;0.47;;;17.00;99.90;;;;;;5035908;28;20542;-69
2023/07/13 04:30:25;;;;;;;2.10;2.00;;;17.00;99.90;;;;;;5036021;28;20163;-69
2023/07/13 04:32:52;;;;;;;1.43;1.17;;;17.00;99.90;;;;;;5035891;28;20229;-69
2023/07/13 04:35:20;;;;;;;0.60;0.60;;;17.00;99.90;;;;;;5036030;28;20527;-69
2023/07/13 04:37:50;;;;;;;0.60;0.60;;;17.00;99.90;;;;;;5035699;28;20500;-69
2023/07/13 04:40:19;;;;;;;1.47;1.40;;;17.00;99.90;;;;;;5035815;28;20426;-69
2023/07/13 04:42:46;;;;;;;0.50;0.50;;;17.10;99.90;;;;;;5035615;28;20393;-69
2023/07/13 04:45:12;;;;;;;0.50;0.50;;;17.10;99.90;;;;;;5035801;28;20478;-69
2023/07/13 04:47:38;;;;;;;0.70;0.50;;;17.20;99.90;;;;;;5035509;28;20929;-69
2023/07/13 04:50:05;;;;;;;0.47;0.47;;;17.20;99.90;;;;;;5035425;28;20416;-68
2023/07/13 04:52:30;;;;;;;0.60;0.50;;;17.30;99.90;;;;;;5035348;28;20505;-69
2023/07/13 04:54:56;;;;;;;0.77;0.77;;;17.30;99.90;;;;;;5035517;28;20525;-69
2023/07/13 04:57:22;;;;;;;0.70;0.63;;;17.40;99.90;;;;;;5035280;28;20198;-69
2023/07/13 04:59:47;;;;;;;0.60;0.60;;;17.40;99.90;;;;;;5035609;28;20172;-69
2023/07/13 05:02:13;;;;;;;0.67;0.60;;;17.40;99.90;;;;;;5035214;28;20285;-69
2023/07/13 05:04:39;;;;;;;0.50;0.50;;;17.50;99.90;;;;;;5035451;28;20175;-70
2023/07/13 05:07:06;;;;;;;0.50;0.40;;;17.70;99.90;;;;;;5035153;28;20571;-69
2023/07/13 05:09:31;;;;;;;0.50;0.50;;;17.80;99.90;;;;;;5035122;28;20185;-69
2023/07/13 05:11:57;;;;;;;0.60;0.60;;;18.00;99.90;;;;;;5035307;28;20410;-68
2023/07/13 05:14:22;;;;;;;1.40;0.83;;;18.00;99.90;;;;;;5034755;28;20711;-69
2023/07/13 05:16:48;;;;;;;0.50;0.50;;;18.10;99.90;;;;;;5035554;28;20210;-69
2023/07/13 05:19:14;;;;;;;0.60;0.60;;;18.10;99.90;;;;;;5034637;28;20198;-69
2023/07/13 05:21:41;;;;;;;0.53;0.53;;;18.00;99.90;;;;;;5035116;28;20626;-69
2023/07/13 05:24:06;;;;;;;0.50;0.50;;;17.90;99.90;;;;;;5034906;28;20166;-70
2023/07/13 05:26:32;;;;;;;0.50;0.50;;;17.80;99.90;;;;;;5034945;28;20851;-70
2023/07/13 05:28:57;;;;;;;0.40;0.40;;;17.80;99.90;;;;;;5035085;28;20184;-70
2023/07/13 05:31:23;;;;;;;0.70;0.40;;;17.90;99.90;;;;;;5034765;28;20222;-69
2023/07/13 05:33:49;;;;;;;0.47;0.47;;;18.00;99.90;;;;;;5035389;28;20294;-70
2023/07/13 05:36:16;;;;;;;1.17;0.70;;;18.00;99.90;;;;;;5034496;28;20231;-69
2023/07/13 05:38:42;;;;;;;0.50;0.47;;;18.10;99.90;;;;;;5034726;28;20526;-69
2023/07/13 05:41:07;;;;;;;0.43;0.43;;;18.20;99.90;;;;;;5016729;28;20414;-69
2023/07/13 05:43:33;;;;;;;0.30;0.30;;;18.30;99.90;;;;;;5034662;28;20635;-70
2023/07/13 05:45:59;;;;;;;0.90;0.50;;;18.40;99.90;;;;;;5034592;28;20536;-70
2023/07/13 05:48:25;;;;;;;0.67;0.67;;;18.40;99.90;;;;;;5034680;28;20409;-69
2023/07/13 05:50:51;;;;;;;1.83;0.47;;;18.50;99.90;;;;;;5034225;28;20219;-69
2023/07/13 05:53:16;;;;;;;1.00;1.00;;;18.50;99.90;;;;;;5034410;28;20255;-69
2023/07/13 05:55:47;;;;;;;0.40;0.40;;;18.80;99.90;;;;;;5033535;28;20636;-69
2023/07/13 05:58:13;;;;;;;0.40;0.40;;;18.60;99.90;;;;;;5034827;28;20163;-69
2023/07/13 06:00:39;;;;;;;0.80;0.50;;;18.70;99.90;;;;;;5033403;28;20413;-69
2023/07/13 06:03:06;;;;;;;0.90;0.90;;;18.80;99.90;;;;;;5034244;28;20995;-69
2023/07/13 06:05:33;;;;;;;0.70;0.63;;;19.00;99.90;;;;;;5034341;28;20396;-70
2023/07/13 06:07:59;;;;;;;1.03;0.83;;;19.20;99.90;;;;;;5034071;28;20429;-70
2023/07/13 06:10:25;;;;;;;0.57;0.57;;;19.40;99.90;;;;;;5034178;28;20433;-70
2023/07/13 06:12:50;;;;;;;0.40;0.40;;;19.70;99.90;;;;;;5033956;28;20464;-70
2023/07/13 06:15:16;;;;;;;1.33;0.80;;;19.90;99.90;;;;;;5034123;28;20171;-69
2023/07/13 06:17:42;;;;;;;0.70;0.70;;;20.20;99.90;;;;;;5033659;28;20688;-70
2023/07/13 06:20:08;;;;;;;0.50;0.50;;;20.50;99.30;;;;;;5034111;28;20470;-70
2023/07/13 06:22:33;;;;;;;0.83;0.80;;;20.80;98.60;;;;;;5033677;28;20199;-70
2023/07/13 06:24:59;;;;;;;0.53;0.53;;;21.20;97.70;;;;;;5033794;28;20169;-70
2023/07/13 06:27:25;;;;;;;0.53;0.53;;;21.40;96.50;;;;;;5016022;28;20198;-70
2023/07/13 06:29:50;;;;;;;0.87;0.67;;;21.90;95.40;;;;;;5033740;28;20167;-70
2023/07/13 06:32:16;;;;;;;4.83;1.13;;;22.70;95.10;;;;;;5033058;28;20170;-70
2023/07/13 06:34:42;;;;;;;0.60;0.60;;;23.60;93.70;;;;;;5033677;28;20178;-70
2023/07/13 06:37:08;;;;;;;0.53;0.50;;;24.70;91.10;;;;;;5033525;28;20205;-70
2023/07/13 06:39:34;;;;;;;0.50;0.50;;;25.80;88.90;;;;;;5033728;28;20166;-70
2023/07/13 06:41:59;;;;;;;0.50;0.50;;;26.90;83.60;;;;;;5015748;28;20418;-71
2023/07/13 06:44:25;;;;;;;0.57;0.57;;;27.10;73.50;;;;;;5033604;28;20167;-70
2023/07/13 06:46:50;;;;;;;0.50;0.50;;;27.10;74.30;;;;;;5033617;28;20572;-70
2023/07/13 06:49:16;;;;;;;0.50;0.50;;;27.10;71.60;;;;;;5033676;28;20623;-70
2023/07/13 06:51:42;;;;;;;0.50;0.50;;;27.30;67.50;;;;;;5015636;28;20185;-70
2023/07/13 06:54:07;;;;;;;0.50;0.50;;;27.40;66.60;;;;;;5033546;28;20265;-70
2023/07/13 06:56:34;;;;;;;0.40;0.40;;;27.30;66.90;;;;;;5033497;28;20198;-70
2023/07/13 06:58:59;;;;;;;0.80;0.70;;;27.20;64.90;;;;;;5033371;28;20178;-71
2023/07/13 07:01:25;;;;;;;0.47;0.47;;;27.20;63.60;;;;;;5033280;28;20405;-70
2023/07/13 07:03:51;;;;;;;2.30;0.80;;;27.00;62.70;;;;;;5033298;28;20170;-71
2023/07/13 07:06:19;;;;;;;0.50;0.50;;;26.90;63.50;;;;;;5033245;28;20214;-70
2023/07/13 07:08:45;;;;;;;0.70;0.70;;;27.00;66.90;;;;;;5033422;28;20195;-70
2023/07/13 07:11:22;;;;;;;0.70;0.50;;;27.50;62.50;;;;;;5033128;28;20414;-70
2023/07/13 07:13:49;;;;;;;1.17;0.60;;;27.60;62.90;;;;;;5033422;28;20815;-70
2023/07/13 07:16:15;;;;;;;0.60;0.60;;;27.40;62.00;;;;;;5033067;28;20454;-70
2023/07/13 07:18:41;;;;;;;0.40;0.40;;;26.90;64.00;;;;;;5033163;28;20512;-70
2023/07/13 07:21:06;;;;;;;0.50;0.50;;;27.00;65.20;;;;;;5033311;28;20937;-70
2023/07/13 07:23:32;;;;;;;1.90;0.50;;;26.90;63.80;;;;;;5033242;28;20194;-70
2023/07/13 07:25:58;;;;;;;0.40;0.40;;;27.20;80.80;;;;;;5015530;28;20643;-70
2023/07/13 07:28:24;;;;;;;0.70;0.70;;;27.10;64.20;;;;;;5033040;28;20185;-70
2023/07/13 07:30:53;;;;;;;1.87;1.00;;;26.90;64.00;;;;;;5032977;28;20171;-70
2023/07/13 07:33:19;;;;;;;0.50;0.50;;;26.60;63.70;;;;;;5033083;28;20406;-70
2023/07/13 07:35:45;;;;;;;0.53;0.53;;;26.40;70.40;;;;;;5032837;28;20427;-70
2023/07/13 07:38:10;;;;;;;2.57;0.93;;;26.40;62.80;;;;;;5033064;28;20639;-70
2023/07/13 07:40:37;;;;;;;0.40;0.40;;;26.60;61.60;;;;;;5033176;28;20251;-70
2023/07/13 07:43:03;;;;;;;1.17;0.50;;;26.80;62.60;;;;;;5034976;28;20253;-71
2023/07/13 07:45:29;;;;;;;0.57;0.57;;;26.80;65.30;;;;;;5036823;28;20822;-70
2023/07/13 07:47:58;;;;;;;1.27;0.90;;;26.80;63.20;;;;;;5036732;28;20282;-71
2023/07/13 07:50:25;;;;;;;0.77;0.63;;;26.20;63.80;;;;;;5036831;28;20163;-71
2023/07/13 07:52:50;;;;;;;0.70;0.67;;;25.40;65.90;;;;;;5036606;28;20440;-70
2023/07/13 07:55:16;;;;;;;0.87;0.60;;;25.80;63.60;;;;;;5036782;28;20402;-71
2023/07/13 07:57:42;;;;;;;1.90;0.73;;;27.40;63.60;;;;;;5036451;28;20257;-71
2023/07/13 08:00:08;;;;;;;0.63;0.50;;;29.40;57.70;;;;;;5036707;28;20170;-70
2023/07/13 08:02:34;;;;;;;0.40;0.30;;;30.20;57.10;;;;;;5036469;28;20413;-71
2023/07/13 08:04:59;;;;;;;0.63;0.63;;;30.40;55.30;;;;;;5036850;28;20397;-70
2023/07/13 08:07:25;;;;;;;2.00;0.83;;;30.60;54.00;;;;;;5036349;28;20210;-71
2023/07/13 08:09:54;;;;;;;0.70;0.70;;;31.00;52.70;;;;;;5037053;28;20511;-71
2023/07/13 08:12:20;;;;;;;0.80;0.60;;;31.50;52.60;;;;;;5036333;28;20233;-70
2023/07/13 08:14:49;;;;;;;0.77;0.50;;;32.00;51.20;;;;;;5036709;28;20430;-71
2023/07/13 08:17:24;;;;;;;0.87;0.77;;;32.60;48.70;;;;;;5036433;28;20203;-71
2023/07/13 08:19:51;;;;;;;0.50;0.50;;;33.70;46.10;;;;;;5018028;28;20460;-71
2023/07/13 08:22:17;;;;;;;0.50;0.50;;;34.00;44.60;;;;;;5036006;28;20548;-71
2023/07/13 08:24:43;;;;;;;2.53;0.50;;;34.40;45.50;;;;;;5035892;28;20460;-71
2023/07/13 08:27:11;;;;;;;0.87;0.67;;;35.30;45.60;;;;;;5036100;28;20187;-71
2023/07/13 08:29:37;;;;;;;0.53;0.40;;;36.30;43.40;;;;;;5036105;28;20402;-71
2023/07/13 08:32:04;;;;;;;0.60;0.60;;;37.00;41.30;;;;;;5035900;28;20759;-70
2023/07/13 08:34:30;;;;;;;0.43;0.43;;;37.10;40.50;;;;;;5036190;28;20479;-71
2023/07/13 08:36:55;;;;;;;0.43;0.43;;;37.30;41.00;;;;;;5035888;28;20988;-71
2023/07/13 08:39:21;;;;;;;0.53;0.53;;;36.80;41.90;;;;;;5036026;28;20167;-71
2023/07/13 08:41:55;;;;;;;1.70;0.50;;;35.80;39.10;;;;;;5035827;28;20198;-71
2023/07/13 08:44:36;;;;;;;0.57;0.53;;;36.00;40.30;;;;;;5036151;28;20205;-71
2023/07/13 08:47:02;;;;;;;0.40;0.40;;;35.40;41.10;;;;;;5018124;28;20437;-70
2023/07/13 08:49:29;;;;;;;0.50;0.50;;;34.00;42.10;;;;;;5035831;28;20401;-70
2023/07/13 08:52:03;;;;;;;0.50;0.50;;;33.80;43.60;;;;;;5035518;28;20402;-70
2023/07/13 08:54:38;;;;;;;1.33;0.70;;;33.70;41.90;;;;;;5017533;28;20935;-70
2023/07/13 08:57:16;;;;;;;0.53;0.53;;;33.10;42.60;;;;;;5017699;28;20457;-70
2023/07/13 08:59:43;;;;;;;0.60;0.50;;;32.40;45.50;;;;;;5035588;28;20398;-70
2023/07/13 09:02:28;;;;;;;0.70;0.70;;;32.60;46.60;;;;;;5035195;28;20411;-70
2023/07/13 09:04:56;;;;;;;0.60;0.53;;;32.60;43.00;;;;;;5034045;28;20402;-70
2023/07/13 09:07:29;;;;;;;0.60;0.60;;;31.90;44.70;;;;;;5034532;28;20425;-70
2023/07/13 09:09:55;;;;;;;0.50;0.50;;;30.80;44.70;;;;;;5034200;28;20406;-70
2023/07/13 09:12:27;;;;;;;1.53;0.53;;;31.10;45.50;;;;;;5034352;28;20408;-70
2023/07/13 09:14:56;;;;;;;0.53;0.47;;;31.60;46.60;;;;;;5035230;28;20209;-70
2023/07/13 09:17:29;;;;;;;0.63;0.50;;;30.90;46.80;;;;;;5034977;28;20461;-70
2023/07/13 09:20:19;;;;;;;0.60;0.60;;;30.70;46.20;;;;;;5035153;28;20821;-70
2023/07/13 09:22:46;;;;;;;0.50;0.50;;;29.90;46.10;;;;;;5035000;28;20397;-69
2023/07/13 09:25:32;;;;;;;0.70;0.50;;;28.80;50.90;;;;;;5035299;28;21016;-70
2023/07/13 09:28:32;;;;;;;1.10;0.70;;;28.90;48.90;;;;;;5034812;28;20789;-70
2023/07/13 09:31:29;;;;;;;0.40;0.40;;;29.90;46.00;;;;;;5034638;28;20962;-70
2023/07/13 09:33:55;;;;;;;0.50;0.50;;;30.30;49.80;;;;;;5033693;28;20421;-70
2023/07/13 09:36:25;;;;;;;0.50;0.50;;;30.90;47.50;;;;;;5034607;28;20461;-70
2023/07/13 09:39:04;;;;;;;0.40;0.40;;;31.10;49.60;;;;;;5034904;28;20148;-70
2023/07/13 09:41:47;;;;;;;0.83;0.70;;;31.60;46.20;;;;;;5034529;28;20897;-70
2023/07/13 09:44:27;;;;;;;0.97;0.80;;;31.00;45.90;;;;;;5034592;28;20394;-70
2023/07/13 09:46:55;;;;;;;0.73;0.63;;;29.10;48.90;;;;;;5034500;28;20947;-70
2023/07/13 09:49:26;;;;;;;0.50;0.47;;;28.40;50.60;;;;;;5034406;28;20413;-70
2023/07/13 09:52:05;;;;;;;3.80;0.60;;;27.60;49.50;;;;;;5034234;28;20931;-70
2023/07/13 09:54:34;;;;;;;0.60;0.60;;;27.40;50.70;;;;;;5034292;28;20394;-70
2023/07/13 09:57:00;;;;;;;0.80;0.40;;;28.10;51.10;;;;;;5034103;28;20548;-70
2023/07/13 09:59:32;;;;;;;0.50;0.50;;;28.60;51.50;;;;;;5034693;28;20397;-70
2023/07/13 10:01:58;;;;;;;0.70;0.70;;;29.50;49.10;;;;;;5034189;28;20402;-70
2023/07/13 10:04:43;;;;;;;0.50;0.50;;;30.40;45.50;;;;;;5034878;28;20431;-70
2023/07/13 10:07:13;;;;;;;0.60;0.60;;;30.90;46.30;;;;;;5033268;28;20933;-70
2023/07/13 10:09:39;;;;;;;0.57;0.57;;;31.40;47.60;;;;;;5034236;28;20445;-70
2023/07/13 10:12:17;;;;;;;0.60;0.60;;;32.00;45.40;;;;;;5034070;28;20987;-70
2023/07/13 10:14:43;;;;;;;1.90;1.10;;;32.70;43.70;;;;;;5034174;28;20429;-70
2023/07/13 10:17:13;;;;;;;0.50;0.50;;;33.00;46.90;;;;;;5033919;28;20457;-70
2023/07/13 10:19:43;;;;;;;0.70;0.70;;;32.40;44.30;;;;;;5033974;28;20445;-69
2023/07/13 10:22:21;;;;;;;0.83;0.57;;;30.50;44.40;;;;;;5033795;28;20420;-69
2023/07/13 10:24:50;;;;;;;0.60;0.60;;;30.60;48.70;;;;;;5033657;28;20777;-70
2023/07/13 10:27:25;;;;;;;0.70;0.50;;;31.10;46.60;;;;;;5033954;28;20434;-69
2023/07/13 10:30:09;;;;;;;0.57;0.57;;;30.50;47.50;;;;;;5032598;28;20444;-69
2023/07/13 10:32:36;;;;;;;0.40;0.40;;;29.50;47.20;;;;;;5033684;28;20412;-70
2023/07/13 10:35:02;;;;;;;0.60;0.60;;;28.50;49.30;;;;;;5033845;28;20447;-70
2023/07/13 10:37:40;;;;;;;0.60;0.60;;;28.20;53.00;;;;;;5033595;28;20453;-70
2023/07/13 10:40:14;;;;;;;0.67;0.67;;;27.80;50.20;;;;;;5033797;28;20402;-70
2023/07/13 10:42:43;;;;;;;0.60;0.60;;;27.20;50.90;;;;;;5033574;28;20841;-69
2023/07/13 10:45:30;;;;;;;0.40;0.40;;;27.10;56.00;;;;;;5033692;28;20800;-70
2023/07/13 10:47:56;;;;;;;0.60;0.60;;;27.50;49.80;;;;;;5033544;28;20440;-70
2023/07/13 10:50:24;;;;;;;0.60;0.60;;;28.00;52.90;;;;;;5033763;28;20882;-70
2023/07/13 10:53:03;;;;;;;0.57;0.57;;;28.20;51.80;;;;;;5033373;28;20488;-70
2023/07/13 10:55:54;;;;;;;0.87;0.73;;;27.80;50.50;;;;;;5033559;28;20401;-70
2023/07/13 10:58:33;;;;;;;0.70;0.70;;;27.50;47.30;;;;;;5033476;28;20376;-70
2023/07/13 11:01:18;;;;;;;0.80;0.40;;;27.40;53.70;;;;;;5033419;28;20432;-70
2023/07/13 11:03:43;;;;;;;0.50;0.50;;;27.40;51.70;;;;;;5015760;28;20743;-70
2023/07/13 11:06:22;;;;;;;0.87;0.60;;;27.00;47.00;;;;;;5033236;28;20436;-69
2023/07/13 11:08:48;;;;;;;1.37;0.80;;;26.20;47.20;;;;;;5033315;28;20204;-70
2023/07/13 11:11:26;;;;;;;0.50;0.50;;;25.70;54.30;;;;;;5032983;28;20420;-70
2023/07/13 11:13:51;;;;;;;0.53;0.53;;;25.60;52.80;;;;;;5033028;28;20397;-69
2023/07/13 11:16:20;;;;;;;0.50;0.50;;;25.70;56.20;;;;;;5032885;28;20522;-70
2023/07/13 11:18:58;;;;;;;1.10;1.10;;;25.80;53.80;;;;;;5036505;28;20231;-69
2023/07/13 11:21:27;;;;;;;2.63;0.83;;;25.50;52.30;;;;;;5037232;28;20480;-70
2023/07/13 11:24:01;;;;;;;3.50;1.13;;;24.90;54.20;;;;;;5037174;28;20892;-70
2023/07/13 11:26:48;;;;;;;0.60;0.60;;;24.70;53.50;;;;;;5035360;28;20415;-70
2023/07/13 11:29:37;;;;;;;0.60;0.60;;;24.50;55.70;;;;;;5036329;28;20413;-70
2023/07/13 11:32:23;;;;;;;1.90;1.07;;;24.50;57.10;;;;;;5036952;28;20413;-70
2023/07/13 11:34:50;;;;;;;0.60;0.60;;;24.90;58.00;;;;;;5037470;28;20422;-70
2023/07/13 11:37:18;;;;;;;0.60;0.50;;;25.30;53.30;;;;;;5036782;28;20438;-70
2023/07/13 11:39:46;;;;;;;1.60;1.20;;;24.90;47.70;;;;;;5037290;28;20404;-70
2023/07/13 11:42:17;;;;;;;0.80;0.63;;;25.20;47.80;;;;;;5036731;28;20392;-69
2023/07/13 11:44:49;;;;;;;0.40;0.40;;;25.20;42.30;;;;;;5036872;28;20434;-70
2023/07/13 11:47:21;;;;;;;0.60;0.60;;;25.30;42.70;;;;;;5036868;28;20930;-70
2023/07/13 11:49:56;;;;;;;0.50;0.50;;;25.20;44.70;;;;;;5037014;28;20979;-70
2023/07/13 11:52:33;;;;;;;0.30;0.30;;;25.50;44.70;;;;;;5036550;28;20411;-70
2023/07/13 11:55:01;;;;;;;0.40;0.40;;;25.50;49.90;;;;;;5036934;28;20463;-69
2023/07/13 11:57:33;;;;;;;0.40;0.40;;;25.50;53.90;;;;;;5036506;28;20434;-70
2023/07/13 12:00:10;;;;;;;0.40;0.40;;;25.70;48.80;;;;;;5036658;28;20379;-69
2023/07/13 12:02:40;;;;;;;0.40;0.40;;;25.70;52.50;;;;;;5036613;28;20784;-70
2023/07/13 12:05:09;;;;;;;0.63;0.40;;;25.90;53.20;;;;;;5036666;28;20400;-70
2023/07/13 12:07:38;;;;;;;0.87;0.70;;;25.90;52.50;;;;;;5036321;28;20436;-70
2023/07/13 12:10:23;;;;;;;0.40;0.40;;;25.70;49.40;;;;;;5036334;28;20387;-70
2023/07/13 12:13:02;;;;;;;0.60;0.60;;;25.30;44.50;;;;;;5036333;28;20409;-70
2023/07/13 12:15:41;;;;;;;0.57;0.57;;;25.00;46.20;;;;;;5036483;28;20384;-70
2023/07/13 12:18:30;;;;;;;0.50;0.50;;;25.00;52.90;;;;;;5036209;28;20482;-70
2023/07/13 12:20:59;;;;;;;0.57;0.37;;;25.20;49.80;;;;;;5036255;28;20818;-70
2023/07/13 12:23:32;;;;;;;0.40;0.40;;;25.30;48.80;;;;;;5036329;28;20375;-69
2023/07/13 12:26:00;;;;;;;0.57;0.57;;;25.10;62.50;;;;;;5036324;28;20488;-70
2023/07/13 12:28:36;;;;;;;0.53;0.53;;;25.40;51.20;;;;;;5035482;28;20444;-70
2023/07/13 12:31:06;;;;;;;0.60;0.60;;;25.40;49.60;;;;;;5035991;28;20420;-70
2023/07/13 12:33:33;;;;;;;0.87;0.50;;;25.40;51.40;;;;;;5036092;28;20401;-70
2023/07/13 12:36:02;;;;;;;1.20;0.80;;;25.20;63.70;;;;;;5035910;28;20966;-69
2023/07/13 12:38:29;;;;;;;0.30;0.30;;;25.40;51.90;;;;;;5035847;28;20407;-70
2023/07/13 12:40:55;;;;;;;0.40;0.40;;;25.50;49.50;;;;;;5035882;28;20401;-70
2023/07/13 12:43:23;;;;;;;0.70;0.60;;;25.50;46.80;;;;;;5035837;28;20394;-70
2023/07/13 12:46:03;;;;;;;0.53;0.53;;;25.10;54.70;;;;;;5036035;28;20532;-69
2023/07/13 12:48:29;;;;;;;0.60;0.60;;;25.40;50.60;;;;;;5035925;28;20374;-70
2023/07/13 12:51:00;;;;;;;0.50;0.47;;;25.40;51.20;;;;;;5035713;28;20485;-70
2023/07/13 12:53:31;;;;;;;0.40;0.40;;;25.50;48.60;;;;;;5035618;28;20167;-70
2023/07/13 12:56:02;;;;;;;0.50;0.50;;;25.30;61.40;;;;;;5035735;28;20443;-70